CW4591 Weather Reports


Display with metric or nautical units.
time (UTC)temp
F
wind
direction
speed
MPH
gust
MPH
rain 1hr
in
rain 24hr
in
rain mn
in
humidity
%
barometer
mb
20240530041559 52 338 1.0 5.0 0.00 0.13 0.12 73 1011.4
20240530040050 54 315 0.0 6.0 0.00 0.13 0.12 69 1011.4
20240530034550 54 249 3.0 9.0 0.00 0.14 0.12 68 1011.3
20240530033050 54 284 2.0 8.0 0.00 0.14 0.12 67 1011.3
20240530031559 55 285 3.0 9.0 0.00 0.14 0.12 65 1011.2
20240530030058 55 337 4.0 9.0 0.00 0.14 0.12 67 1011.1
20240530024547 56 338 4.0 8.0 0.00 0.14 0.12 64 1010.9
20240530023048 55 293 4.0 8.0 0.00 0.14 0.12 65 1011.0
20240530021546 55 302 4.0 8.0 0.00 0.14 0.12 63 1010.9
20240530020046 56 302 4.0 10.0 0.00 0.14 0.12 64 1010.9
20240530014543 55 314 2.0 7.0 0.00 0.14 0.12 68 1010.9
20240530013041 55 295 3.0 7.0 0.00 0.14 0.12 67 1010.9
20240530011542 54 265 2.0 6.0 0.00 0.14 0.12 70 1010.8
20240530010104 54 278 0.0 6.0 0.00 0.14 0.12 67 1010.7
20240530004537 53 235 3.0 10.0 0.00 0.15 0.12 73 1010.6
20240530003037 53 156 5.0 12.0 0.00 0.15 0.12 75 1010.7
20240530001530 52 174 6.0 13.0 0.00 0.15 0.12 77 1010.6
20240530000037 51 206 6.0 12.0 0.00 0.15 0.12 80 1010.8
20240529234546 52 214 6.0 12.0 0.00 0.15 0.12 81 1010.8
20240529233030 50 183 6.0 16.0 0.00 0.15 0.12 82 1010.9
20240529231526 50 149 8.0 16.0 0.00 0.15 0.12 82 1011.0
20240529230024 51 194 7.0 12.0 0.00 0.15 0.12 83 1010.9
20240529224527 51 216 2.0 11.0 0.01 0.17 0.12 91 1010.9
20240529223017 50 142 0.0 5.0 0.02 0.17 0.12 93 1010.9
20240529221519 50 200 0.0 4.0 0.02 0.17 0.12 90 1010.8
20240529220014 50 206 2.0 4.0 0.03 0.17 0.12 87 1010.8
20240529214512 49 41 0.0 0.0 0.02 0.16 0.11 91 1010.7
20240529213011 49 41 0.0 0.0 0.01 0.15 0.10 93 1010.8
20240529211516 49 41 0.0 0.0 0.01 0.15 0.10 92 1010.7
20240529210022 48 41 0.0 0.0 0.00 0.14 0.09 93 1010.7
20240529204508 49 41 0.0 3.0 0.00 0.14 0.09 93 1010.6
20240529203007 48 354 0.0 4.0 0.00 0.14 0.09 92 1010.6
20240529201507 48 354 1.0 4.0 0.00 0.14 0.09 92 1010.5
20240529200007 48 354 0.0 4.0 0.00 0.14 0.09 92 1010.5
20240529194505 49 354 1.0 6.0 0.00 0.14 0.09 93 1010.4
20240529193003 48 308 2.0 3.0 0.00 0.14 0.09 91 1010.4
20240529191508 48 308 0.0 4.0 0.00 0.14 0.09 92 1010.4
20240529190001 48 308 0.0 3.0 0.00 0.14 0.09 94 1010.4
20240529184600 48 308 0.0 4.0 0.00 0.15 0.09 96 1010.3
20240529183100 48 281 1.0 3.0 0.00 0.15 0.09 96 1010.2
20240529181558 48 32 0.0 3.0 0.00 0.15 0.09 96 1010.2
20240529180120 47 32 1.0 3.0 0.00 0.15 0.09 96 1010.1
20240529174555 47 32 0.0 0.0 0.01 0.17 0.09 96 1010.1
20240529173101 47 33 0.0 2.0 0.01 0.17 0.09 97 1010.0
20240529171552 46 32 0.0 2.0 0.03 0.17 0.09 97 1010.0
20240529170051 46 56 2.0 5.0 0.04 0.17 0.09 97 1010.1
20240529164556 46 52 0.0 4.0 0.03 0.19 0.08 97 1010.0
20240529163052 45 262 0.0 0.0 0.05 0.19 0.08 97 1010.0
20240529161551 45 262 0.0 2.0 0.04 0.17 0.06 97 1010.0
20240529160046 45 301 2.0 6.0 0.05 0.16 0.05 97 1009.9
20240529154546 44 224 2.0 6.0 0.05 0.18 0.05 97 1009.9
20240529153045 44 237 1.0 3.0 0.03 0.16 0.03 97 1010.1
20240529151544 44 90 0.0 0.0 0.01 0.14 0.01 97 1010.2
20240529150047 43 90 0.0 2.0 0.00 0.13 0.00 97 1010.1
20240529144546 43 89 1.0 5.0 0.00 0.16 0.00 97 1010.2
20240529143040 43 70 1.0 7.0 0.00 0.16 0.00 97 1010.1
20240529141539 43 58 0.0 0.0 0.00 0.16 0.00 97 1010.0
20240529140038 43 58 1.0 4.0 0.00 0.16 0.00 97 1009.9
20240529134536 42 68 0.0 2.0 0.00 0.16 0.00 97 1009.8
20240529133039 42 68 0.0 0.0 0.00 0.16 0.00 97 1009.6
20240529131540 42 68 0.0 0.0 0.00 0.16 0.00 97 1009.6
20240529130035 42 68 0.0 0.0 0.00 0.16 0.00 97 1009.6
20240529124546 42 68 0.0 0.0 0.00 0.17 0.00 97 1009.5
20240529123033 42 68 0.0 0.0 0.00 0.17 0.00 97 1009.5
20240529121532 42 224 0.0 0.0 0.00 0.17 0.00 97 1009.6
20240529120030 42 224 0.0 4.0 0.00 0.17 0.00 97 1009.4
20240529114538 42 234 1.0 3.0 0.00 0.19 0.00 97 1009.3
20240529113027 42 299 0.0 2.0 0.00 0.19 0.00 97 1009.3
20240529111527 42 299 0.0 0.0 0.00 0.19 0.00 97 1009.3
20240529110028 42 299 0.0 0.0 0.00 0.19 0.00 97 1009.3
20240529104524 42 299 0.0 0.0 0.00 0.20 0.00 97 1009.3
20240529103022 42 299 0.0 0.0 0.00 0.20 0.00 96 1009.3
20240529101521 42 299 0.0 0.0 0.00 0.20 0.00 96 1009.1
20240529100020 43 299 0.0 2.0 0.00 0.20 0.00 96 1009.1
20240529094518 43 299 0.0 0.0 0.00 0.22 0.00 96 1009.1
20240529093016 43 301 0.0 3.0 0.00 0.22 0.00 96 1008.9
20240529091519 42 299 0.0 2.0 0.00 0.22 0.00 96 1008.8
20240529090012 42 299 0.0 2.0 0.00 0.22 0.00 96 1008.6
20240529084515 43 299 0.0 0.0 0.00 0.23 0.00 95 1008.6
20240529083010 43 299 0.0 0.0 0.00 0.23 0.00 95 1008.7
20240529081508 43 299 0.0 0.0 0.00 0.23 0.00 95 1008.6
20240529080005 44 299 0.0 1.0 0.00 0.23 0.00 95 1008.6
20240529074506 44 299 0.0 0.0 0.00 0.24 0.23 95 1008.5
20240529073004 44 299 0.0 0.0 0.00 0.24 0.23 94 1008.5
20240529071504 45 299 0.0 3.0 0.01 0.24 0.23 94 1008.5
20240529070002 45 299 1.0 4.0 0.01 0.24 0.23 94 1008.4
20240529064501 46 289 2.0 4.0 0.01 0.24 0.23 93 1008.4
20240529063001 46 304 2.0 5.0 0.01 0.24 0.23 93 1008.3
20240529061615 47 290 2.0 6.0 0.00 0.23 0.22 92 1008.3
20240529060058 47 331 2.0 7.0 0.00 0.23 0.22 91 1008.2
20240529054605 47 310 2.0 5.0 0.00 0.24 0.22 90 1008.1
20240529053057 47 317 2.0 5.0 0.00 0.24 0.22 90 1008.0
20240529051556 47 308 0.0 4.0 0.00 0.24 0.22 90 1007.9
20240529050054 47 307 0.0 3.0 0.00 0.24 0.22 90 1007.9
20240529044555 47 310 0.0 5.0 0.00 0.25 0.22 89 1007.9
20240529043105 48 326 2.0 5.0 0.00 0.25 0.22 88 1007.7